Rickmers Dalian — V7FS3 — position and weather

sailwx.info

Track history (hours):
 
Tides and Currents Weather Stations Pressure Air Temp Water Temp Dewpoint Dewpoint Depression Visibility Wind Speed Wind Dir Waves Ship Positions

Rickmers Dalian

Last reported at 2018-Feb-19 13:30 UTC. Time now 2018-Feb-19 13:54 UTC.
Position N 37°42' W 000°23'.

Length 193 m; beam 27.8 m; draft 11.2 m.

Type: Ship. MMSI: 538090156.

Date/timePositionNaut miles runAvg speedWind from/ knotsBaromVisibWave heightAir tempDewpointWater temp
2018-Feb-19 13:30N 37°42' W 000°23'917.6
2018-Feb-19 13:00N 37°35' W 000°29'1017.2
2018-Feb-19 12:25N 37°28' W 000°39'716.6
2018-Feb-19 12:00N 37°23' W 000°45'816.3
2018-Feb-19 11:30N 37°18' W 000°53'1216.4
2018-Feb-19 10:44N 37°09' W 001°05'40215.8
2018-Feb-18 09:18N 36°42' W 009°26'516.6
2018-Feb-18 09:00N 36°46' W 009°30'816.4
2018-Feb-18 08:30N 36°54' W 009°33'3816.4
2018-Feb-18 06:13N 37°31' W 009°45'1016.5
2018-Feb-18 05:38N 37°40' W 009°48'416.6
2018-Feb-18 05:25N 37°43' W 009°49'716.8
2018-Feb-18 05:00N 37°50' W 009°51'1116.8
2018-Feb-18 04:20N 38°01' W 009°54'616.9
2018-Feb-18 04:00N 38°06' W 009°56'816.5
2018-Feb-18 03:30N 38°14' W 009°58'817.0
2018-Feb-18 03:00N 38°22' W 010°01'917.6
2018-Feb-18 02:30N 38°31' W 010°04'1017.1
2018-Feb-18 01:55N 38°41' W 010°07'716.8
2018-Feb-18 01:29N 38°48' W 010°07'816.6
2018-Feb-18 01:01N 38°56' W 010°07'816.5
2018-Feb-18 00:30N 39°04' W 010°07'816.8
2018-Feb-18 00:00N 39°13' W 010°07'60415.4
2018-Feb-16 08:52N 48°48' W 005°52'616.0
2018-Feb-16 08:29N 48°53' W 005°48'815.1
2018-Feb-16 07:59N 48°57' W 005°38'80 9.7
2018-Feb-15 23:43N 49°38' W 003°51'910.6
2018-Feb-15 22:50N 49°43' W 003°39'310.3
2018-Feb-15 22:30N 49°44' W 003°35'510.0
2018-Feb-15 22:00N 49°47' W 003°28'5 9.6
2018-Feb-15 21:30N 49°49' W 003°22'4 8.9
2018-Feb-15 21:00N 49°52' W 003°16'4 8.3
2018-Feb-15 20:30N 49°54' W 003°10'4 7.9
2018-Feb-15 20:00N 49°56' W 003°05'4 7.6
2018-Feb-15 19:30N 49°57' W 002°60'4 7.9
2018-Feb-15 19:00N 49°60' W 002°55'4 7.4
2018-Feb-15 18:27N 50°01' W 002°48'3 6.3
2018-Feb-15 17:59N 50°02' W 002°44'3 5.7
2018-Feb-15 17:29N 50°02' W 002°40'2 3.5
2018-Feb-15 17:00N 50°03' W 002°37'2 4.3
2018-Feb-15 16:30N 50°03' W 002°34'3 4.8
2018-Feb-15 15:54N 50°04' W 002°30'21 7.1
2018-Feb-15 12:53N 50°10' W 001°57'3 7.3
2018-Feb-15 12:30N 50°10' W 001°53'3 6.2
2018-Feb-15 12:00N 50°11' W 001°48'3 5.5
2018-Feb-15 11:30N 50°12' W 001°44'8 6.7
2018-Feb-15 10:20N 50°14' W 001°32'2 6.3
2018-Feb-15 09:59N 50°15' W 001°29'3 7.0
2018-Feb-15 09:30N 50°16' W 001°24'3 6.6
2018-Feb-15 09:00N 50°16' W 001°19'3 6.5
2018-Feb-15 08:30N 50°17' W 001°14'4 6.1
2018-Feb-15 07:52N 50°18' W 001°08'5 6.0
2018-Feb-15 07:00N 50°20' W 001°00'5 7.0
2018-Feb-15 06:14N 50°21' W 000°52'2 8.1
2018-Feb-15 06:00N 50°22' W 000°49'5 8.7
2018-Feb-15 05:29N 50°23' W 000°43'4 9.3
2018-Feb-15 05:00N 50°24' W 000°36'510.0
2018-Feb-15 04:30N 50°25' W 000°28'510.4
2018-Feb-15 04:00N 50°26' W 000°20'510.6
2018-Feb-15 03:30N 50°28' W 000°12'510.8
2018-Feb-15 03:00N 50°29' W 000°04'510.5
2018-Feb-15 02:30N 50°31' E 000°04'510.1
2018-Feb-15 02:00N 50°32' E 000°11'5 9.5
2018-Feb-15 01:30N 50°33' E 000°19'5 9.0
2018-Feb-15 01:00N 50°35' E 000°26'4 8.2
2018-Feb-15 00:30N 50°36' E 000°32'4 7.7
2018-Feb-15 00:00N 50°38' E 000°36'4 7.0
2018-Feb-14 23:30N 50°40' E 000°41'3 7.0
2018-Feb-14 23:00N 50°42' E 000°46'4 8.7
2018-Feb-14 22:30N 50°45' E 000°51'4 8.4
2018-Feb-14 22:00N 50°47' E 000°57'4 8.1
2018-Feb-14 21:29N 50°50' E 001°02'4 8.8
2018-Feb-14 21:00N 50°53' E 001°07'5 9.2
2018-Feb-14 20:30N 50°56' E 001°13'510.2
2018-Feb-14 20:00N 50°59' E 001°19'510.6
2018-Feb-14 19:31N 51°03' E 001°23'510.9
2018-Feb-14 19:00N 51°06' E 001°31'612.7
2018-Feb-14 18:30N 51°10' E 001°39'612.5
2018-Feb-14 18:01N 51°14' E 001°46'611.9
2018-Feb-14 17:30N 51°19' E 001°51'611.5
2018-Feb-14 17:00N 51°24' E 001°57'611.3
2018-Feb-14 16:31N 51°24' E 002°06'714.2
2018-Feb-14 16:00N 51°20' E 002°16'611.9
2018-Feb-14 15:30N 51°22' E 002°25'612.5
2018-Feb-14 14:59N 51°23' E 002°36'612.5
2018-Feb-14 14:29N 51°22' E 002°46'612.3
2018-Feb-14 14:01N 51°23' E 002°55'611.7
2018-Feb-14 13:31N 51°25' E 003°04'612.3
2018-Feb-14 13:01N 51°25' E 003°14'612.4
2018-Feb-14 12:31N 51°25' E 003°24'611.7
2018-Feb-14 12:01N 51°26' E 003°33'4 8.3
2018-Feb-14 11:31N 51°26' E 003°40'5 9.2
2018-Feb-14 11:01N 51°23' E 003°44'510.4
2018-Feb-14 10:31N 51°21' E 003°52'510.7
2018-Feb-14 10:01N 51°25' E 003°58'3 5.8
2018-Feb-14 09:31N 51°24' E 004°02'5 9.3
2018-Feb-14 09:01N 51°23' E 004°10'4 7.6
2018-Feb-14 08:31N 51°21' E 004°15'1 3.0
2018-Feb-14 08:00N 51°21' E 004°17'0 0.0
2018-Feb-14 07:30N 51°21' E 004°17'0 0.0
2018-Feb-14 07:00N 51°21' E 004°17'0 0.0
2018-Feb-14 06:30N 51°21' E 004°17'1 2.4
2018-Feb-14 06:00N 51°20' E 004°18'3 6.4
2018-Feb-14 05:31N 51°17' E 004°21'2 2.9
2018-Feb-14 04:59N 51°17' E 004°23'0 0.0
2018-Feb-14 04:29N 51°17' E 004°23'0 0.0
2018-Feb-14 03:59N 51°17' E 004°23'0 0.0
2018-Feb-14 03:29N 51°17' E 004°23'0 0.0
2018-Feb-14 02:59N 51°17' E 004°23'0 0.0
2018-Feb-14 02:29N 51°17' E 004°23'0 0.0
2018-Feb-14 01:59N 51°17' E 004°23'0 0.0
2018-Feb-14 01:29N 51°17' E 004°23'0 0.0
2018-Feb-14 00:59N 51°17' E 004°23'0 0.0
2018-Feb-14 00:29N 51°17' E 004°23'0 0.0
2018-Feb-13 23:59N 51°17' E 004°23'0 0.0
2018-Feb-13 23:29N 51°17' E 004°23'0 0.0
2018-Feb-13 22:59N 51°17' E 004°23'0 0.0
2018-Feb-13 22:29N 51°17' E 004°23'0 0.0
2018-Feb-13 21:59N 51°17' E 004°23'0 0.0
2018-Feb-13 21:29N 51°17' E 004°23'0 0.0
2018-Feb-13 20:59N 51°17' E 004°23'0 0.0
2018-Feb-13 20:29N 51°17' E 004°23'0 0.0
2018-Feb-13 19:59N 51°17' E 004°23'0 0.0
2018-Feb-13 19:29N 51°17' E 004°23'0 0.0
2018-Feb-13 18:59N 51°17' E 004°23'0 0.0
2018-Feb-13 18:29N 51°17' E 004°23'0 0.0
2018-Feb-13 17:56N 51°17' E 004°23'0 0.0
2018-Feb-13 17:29N 51°17' E 004°23'0 0.0
2018-Feb-13 16:59N 51°17' E 004°23'0 0.0
2018-Feb-13 16:29N 51°17' E 004°23'0 0.0
2018-Feb-13 15:59N 51°17' E 004°23'0 0.0
2018-Feb-13 15:29N 51°17' E 004°23'0 0.0
2018-Feb-13 14:59N 51°17' E 004°23'0 0.0
2018-Feb-13 14:29N 51°17' E 004°23'0 0.0
2018-Feb-13 13:59N 51°17' E 004°23'0 0.0
2018-Feb-13 13:29N 51°17' E 004°23'0 0.0
2018-Feb-13 12:59N 51°17' E 004°23'0 0.0
2018-Feb-13 12:29N 51°17' E 004°23'0 0.0
2018-Feb-13 11:59N 51°17' E 004°23'0 0.0
2018-Feb-13 11:23N 51°17' E 004°23'0 0.0
2018-Feb-13 10:59N 51°17' E 004°23'0 0.0
2018-Feb-13 10:29N 51°17' E 004°23'0 0.0
2018-Feb-13 09:59N 51°17' E 004°23'0 0.0
2018-Feb-13 09:29N 51°17' E 004°23'0 0.0
2018-Feb-13 08:59N 51°17' E 004°23'0 0.0
2018-Feb-13 08:29N 51°17' E 004°23'0 0.0
2018-Feb-13 07:59N 51°17' E 004°23'0 0.0
2018-Feb-13 07:29N 51°17' E 004°23'0 0.0
2018-Feb-13 06:59N 51°17' E 004°23'0 0.0
2018-Feb-13 06:29N 51°17' E 004°23'0 0.0
2018-Feb-13 05:59N 51°17' E 004°23'0 0.0
2018-Feb-13 05:29N 51°17' E 004°23'0 0.0
2018-Feb-13 04:59N 51°17' E 004°23'0 0.0
2018-Feb-13 04:29N 51°17' E 004°23'0 0.0
2018-Feb-13 03:59N 51°17' E 004°23'0 0.0
2018-Feb-13 03:29N 51°17' E 004°23'0 0.0
2018-Feb-13 02:59N 51°17' E 004°23'0 0.0
2018-Feb-13 02:29N 51°17' E 004°23'0 0.0
2018-Feb-13 01:59N 51°17' E 004°23'0 0.0
2018-Feb-13 01:29N 51°17' E 004°23'0 0.0
2018-Feb-13 00:59N 51°17' E 004°23'0 0.0
2018-Feb-13 00:29N 51°17' E 004°23'0 0.0
2018-Feb-12 23:59N 51°17' E 004°23'0 0.0
2018-Feb-12 23:29N 51°17' E 004°23'0 0.0
2018-Feb-12 22:59N 51°17' E 004°23'0 0.0
2018-Feb-12 22:26N 51°17' E 004°23'0 0.0
2018-Feb-12 21:59N 51°17' E 004°23'0 0.0
2018-Feb-12 21:29N 51°17' E 004°23'0 0.0
2018-Feb-12 20:59N 51°17' E 004°23'0 0.0
2018-Feb-12 20:29N 51°17' E 004°23'0 0.0
2018-Feb-12 19:59N 51°17' E 004°23'0 0.0
2018-Feb-12 19:29N 51°17' E 004°23'0 0.0
2018-Feb-12 18:59N 51°17' E 004°23'0 0.0
2018-Feb-12 18:29N 51°17' E 004°23'0 0.0
2018-Feb-12 17:59N 51°17' E 004°23'0 0.0
2018-Feb-12 17:29N 51°17' E 004°23'0 0.0
2018-Feb-12 16:59N 51°17' E 004°23'0 0.0
2018-Feb-12 16:29N 51°17' E 004°23'0 0.0
2018-Feb-12 15:59N 51°17' E 004°23'0 0.0
2018-Feb-12 15:17N 51°17' E 004°23'0 0.0
2018-Feb-12 14:59N 51°17' E 004°23'0 0.0
2018-Feb-12 14:29N 51°17' E 004°23'0 0.0
2018-Feb-12 13:59N 51°17' E 004°23'0 0.0
2018-Feb-12 13:29N 51°17' E 004°23'0 0.0
2018-Feb-12 12:59N 51°17' E 004°23'0 0.0
2018-Feb-12 12:29N 51°17' E 004°23'0 0.0
2018-Feb-12 11:59N 51°17' E 004°23'0 0.0
2018-Feb-12 11:26N 51°17' E 004°23'0 0.0
2018-Feb-12 10:59N 51°17' E 004°23'0 0.0
2018-Feb-12 10:26N 51°17' E 004°23'0 0.0
2018-Feb-12 09:59N 51°17' E 004°23'0 0.0
2018-Feb-12 09:29N 51°17' E 004°23'0 0.0
2018-Feb-12 08:56N 51°17' E 004°23'0 0.0
2018-Feb-12 08:29N 51°17' E 004°23'0 0.0
2018-Feb-12 07:59N 51°17' E 004°23'0 0.0
2018-Feb-12 07:26N 51°17' E 004°23'0 0.0
2018-Feb-12 06:56N 51°17' E 004°23'0 0.0
2018-Feb-12 06:29N 51°17' E 004°23'0 0.0
2018-Feb-12 05:59N 51°17' E 004°23'0 0.0
2018-Feb-12 05:29N 51°17' E 004°23'0 0.0
2018-Feb-12 04:59N 51°17' E 004°23'0 0.0
2018-Feb-12 04:29N 51°17' E 004°23'0 0.0
2018-Feb-12 03:59N 51°17' E 004°23'0 0.0
2018-Feb-12 03:29N 51°17' E 004°23'0 0.0
2018-Feb-12 02:59N 51°17' E 004°23'0 0.0
2018-Feb-12 02:29N 51°17' E 004°23'0 0.0
2018-Feb-12 01:59N 51°17' E 004°23'0 0.0
2018-Feb-12 01:29N 51°17' E 004°23'0 0.0
2018-Feb-12 00:59N 51°17' E 004°23'0 0.0
2018-Feb-12 00:29N 51°17' E 004°23'0 0.0
2018-Feb-11 23:59N 51°17' E 004°23'0 0.0
2018-Feb-11 23:29N 51°17' E 004°23'0 0.0
2018-Feb-11 22:59N 51°17' E 004°23'0 0.0
2018-Feb-11 22:29N 51°17' E 004°23'0 0.0
2018-Feb-11 21:59N 51°17' E 004°23'0 0.0
2018-Feb-11 21:29N 51°17' E 004°23'0 0.0
2018-Feb-11 20:59N 51°17' E 004°23'0 0.0
2018-Feb-11 20:29N 51°17' E 004°23'0 0.0
2018-Feb-11 19:59N 51°17' E 004°23'0 0.0
2018-Feb-11 19:29N 51°17' E 004°23'0 0.0
2018-Feb-11 18:59N 51°17' E 004°23'0 0.0
2018-Feb-11 18:29N 51°17' E 004°23'0 0.0
2018-Feb-11 17:59N 51°17' E 004°23'0 0.0
2018-Feb-11 17:29N 51°17' E 004°23'0 0.0
2018-Feb-11 16:59N 51°17' E 004°23'0 0.0
2018-Feb-11 16:29N 51°17' E 004°23'0 0.0
2018-Feb-11 15:59N 51°17' E 004°23'0 0.0
2018-Feb-11 15:29N 51°17' E 004°23'0 0.0
2018-Feb-11 14:56N 51°17' E 004°23'0 0.0
2018-Feb-11 14:29N 51°17' E 004°23'0 0.0
2018-Feb-11 13:59N 51°17' E 004°23'0 0.0
2018-Feb-11 13:29N 51°17' E 004°23'0 0.0
2018-Feb-11 12:59N 51°17' E 004°23'0 0.0
2018-Feb-11 12:29N 51°17' E 004°23'0 0.0
2018-Feb-11 11:59N 51°17' E 004°23'0 0.0
2018-Feb-11 11:29N 51°17' E 004°23'0 0.0
2018-Feb-11 10:56N 51°17' E 004°23'0 0.0
2018-Feb-11 10:29N 51°17' E 004°23'0 0.0
2018-Feb-11 09:59N 51°17' E 004°23'0 0.0
2018-Feb-11 09:29N 51°17' E 004°23'0 0.0
2018-Feb-11 08:59N 51°17' E 004°23'0 0.0
2018-Feb-11 08:29N 51°17' E 004°23'0 0.0
2018-Feb-11 07:59N 51°17' E 004°23'0 0.0
2018-Feb-11 07:29N 51°17' E 004°23'0 0.0
2018-Feb-11 06:59N 51°17' E 004°23'0 0.0
2018-Feb-11 06:29N 51°17' E 004°23'0 0.0
2018-Feb-11 05:59N 51°17' E 004°23'0 0.0
2018-Feb-11 05:29N 51°17' E 004°23'0 0.0
2018-Feb-11 04:59N 51°17' E 004°23'0 0.0
2018-Feb-11 04:29N 51°17' E 004°23'0 0.0
2018-Feb-11 03:59N 51°17' E 004°23'0 0.0
2018-Feb-11 03:29N 51°17' E 004°23'0 0.0
2018-Feb-11 02:59N 51°17' E 004°23'0 0.0
2018-Feb-11 02:29N 51°17' E 004°23'0 0.0
2018-Feb-11 01:59N 51°17' E 004°23'0 0.0
2018-Feb-11 01:29N 51°17' E 004°23'0 0.0
2018-Feb-11 00:59N 51°17' E 004°23'0 0.0
2018-Feb-11 00:29N 51°17' E 004°23'0 0.0
2018-Feb-10 23:59N 51°17' E 004°23'0 0.0
2018-Feb-10 23:29N 51°17' E 004°23'0 0.0
2018-Feb-10 22:59N 51°17' E 004°23'0 0.0
2018-Feb-10 22:29N 51°17' E 004°23'0 0.0
2018-Feb-10 21:59N 51°17' E 004°23'0 0.0
2018-Feb-10 21:29N 51°17' E 004°23'0 0.0
2018-Feb-10 20:59N 51°17' E 004°23'0 0.0
2018-Feb-10 20:29N 51°17' E 004°23'0 0.0
2018-Feb-10 19:59N 51°17' E 004°23'0 0.0
2018-Feb-10 19:29N 51°17' E 004°23'0 0.0
2018-Feb-10 18:59N 51°17' E 004°23'0 0.0
2018-Feb-10 18:29N 51°17' E 004°23'0 0.0
2018-Feb-10 17:59N 51°17' E 004°23'0 0.0
2018-Feb-10 17:29N 51°17' E 004°23'0 0.0
2018-Feb-10 16:59N 51°17' E 004°23'0 0.0
2018-Feb-10 16:29N 51°17' E 004°23'0 0.0
2018-Feb-10 15:59N 51°17' E 004°23'0 0.0
2018-Feb-10 15:29N 51°17' E 004°23'0 0.0
2018-Feb-10 14:59N 51°17' E 004°23'0 0.0
2018-Feb-10 14:29N 51°17' E 004°23'0 0.0
2018-Feb-10 13:56N 51°17' E 004°23'0 0.0
2018-Feb-10 13:29N 51°17' E 004°23'0 0.0
2018-Feb-10 12:59N 51°17' E 004°23'0 0.0
2018-Feb-10 12:29N 51°17' E 004°23'0 0.0
2018-Feb-10 11:59N 51°17' E 004°23'0 0.0
2018-Feb-10 11:29N 51°17' E 004°23'0 0.0
2018-Feb-10 10:59N 51°17' E 004°23'0 0.0
2018-Feb-10 10:29N 51°17' E 004°23'0 0.0
2018-Feb-10 09:59N 51°17' E 004°23'0 0.0
2018-Feb-10 09:29N 51°17' E 004°23'0 0.0
2018-Feb-10 08:59N 51°17' E 004°23'0 0.0
2018-Feb-10 08:29N 51°17' E 004°23'0 0.0
2018-Feb-10 07:59N 51°17' E 004°23'0 0.0
2018-Feb-10 07:29N 51°17' E 004°23'0 0.0
2018-Feb-10 06:50N 51°17' E 004°23'0 0.0
2018-Feb-10 06:26N 51°17' E 004°23'0 0.0
2018-Feb-10 05:59N 51°17' E 004°23'0 0.0
2018-Feb-10 05:29N 51°17' E 004°23'0 0.0
2018-Feb-10 04:59N 51°17' E 004°23'0 0.0
2018-Feb-10 04:29N 51°17' E 004°23'0 0.0
2018-Feb-10 03:59N 51°17' E 004°23'0 0.0
2018-Feb-10 03:29N 51°17' E 004°23'0 0.0
2018-Feb-10 02:59N 51°17' E 004°23'0 0.0
2018-Feb-10 02:26N 51°17' E 004°23'0 0.0
2018-Feb-10 01:59N 51°17' E 004°23'0 0.0
2018-Feb-10 01:29N 51°17' E 004°23'0 0.0
2018-Feb-10 00:59N 51°17' E 004°23'0 0.0
2018-Feb-10 00:29N 51°17' E 004°23'0 0.0
2018-Feb-09 23:59N 51°17' E 004°23'0 0.0
2018-Feb-09 23:29N 51°17' E 004°23'0 0.0
2018-Feb-09 22:59N 51°17' E 004°23'0 0.0
2018-Feb-09 22:44N 51°17' E 004°23'  
Track history (hours):
 
Tides and Currents Weather Stations Pressure Air Temp Water Temp Dewpoint Dewpoint Depression Visibility Wind Speed Wind Dir Waves Ship Positions

Rickmers Dalian

Last reported at 2018-Feb-19 13:30 UTC. Time now 2018-Feb-19 13:54 UTC.
Position N 37°42' W 000°23'.

Length 193 m; beam 27.8 m; draft 11.2 m.

Type: Ship. MMSI: 538090156.

Date/timePositionNaut miles runAvg speedWind from/ knotsBaromVisibWave heightAir tempDewpointWater temp
2018-Feb-19 13:30N 37°42' W 000°23'917.6
2018-Feb-19 13:00N 37°35' W 000°29'1017.2
2018-Feb-19 12:25N 37°28' W 000°39'716.6
2018-Feb-19 12:00N 37°23' W 000°45'816.3
2018-Feb-19 11:30N 37°18' W 000°53'1216.4
2018-Feb-19 10:44N 37°09' W 001°05'40215.8
2018-Feb-18 09:18N 36°42' W 009°26'516.6
2018-Feb-18 09:00N 36°46' W 009°30'816.4
2018-Feb-18 08:30N 36°54' W 009°33'3816.4
2018-Feb-18 06:13N 37°31' W 009°45'1016.5
2018-Feb-18 05:38N 37°40' W 009°48'416.6
2018-Feb-18 05:25N 37°43' W 009°49'716.8
2018-Feb-18 05:00N 37°50' W 009°51'1116.8
2018-Feb-18 04:20N 38°01' W 009°54'616.9
2018-Feb-18 04:00N 38°06' W 009°56'816.5
2018-Feb-18 03:30N 38°14' W 009°58'817.0
2018-Feb-18 03:00N 38°22' W 010°01'917.6
2018-Feb-18 02:30N 38°31' W 010°04'1017.1
2018-Feb-18 01:55N 38°41' W 010°07'716.8
2018-Feb-18 01:29N 38°48' W 010°07'816.6
2018-Feb-18 01:01N 38°56' W 010°07'816.5
2018-Feb-18 00:30N 39°04' W 010°07'816.8
2018-Feb-18 00:00N 39°13' W 010°07'60415.4
2018-Feb-16 08:52N 48°48' W 005°52'616.0
2018-Feb-16 08:29N 48°53' W 005°48'815.1
2018-Feb-16 07:59N 48°57' W 005°38'80 9.7
2018-Feb-15 23:43N 49°38' W 003°51'910.6
2018-Feb-15 22:50N 49°43' W 003°39'310.3
2018-Feb-15 22:30N 49°44' W 003°35'510.0
2018-Feb-15 22:00N 49°47' W 003°28'5 9.6
2018-Feb-15 21:30N 49°49' W 003°22'4 8.9
2018-Feb-15 21:00N 49°52' W 003°16'4 8.3
2018-Feb-15 20:30N 49°54' W 003°10'4 7.9
2018-Feb-15 20:00N 49°56' W 003°05'4 7.6
2018-Feb-15 19:30N 49°57' W 002°60'4 7.9
2018-Feb-15 19:00N 49°60' W 002°55'4 7.4
2018-Feb-15 18:27N 50°01' W 002°48'3 6.3
2018-Feb-15 17:59N 50°02' W 002°44'3 5.7
2018-Feb-15 17:29N 50°02' W 002°40'2 3.5
2018-Feb-15 17:00N 50°03' W 002°37'2 4.3
2018-Feb-15 16:30N 50°03' W 002°34'3 4.8
2018-Feb-15 15:54N 50°04' W 002°30'21 7.1
2018-Feb-15 12:53N 50°10' W 001°57'3 7.3
2018-Feb-15 12:30N 50°10' W 001°53'3 6.2
2018-Feb-15 12:00N 50°11' W 001°48'3 5.5
2018-Feb-15 11:30N 50°12' W 001°44'8 6.7
2018-Feb-15 10:20N 50°14' W 001°32'2 6.3
2018-Feb-15 09:59N 50°15' W 001°29'3 7.0
2018-Feb-15 09:30N 50°16' W 001°24'3 6.6
2018-Feb-15 09:00N 50°16' W 001°19'3 6.5
2018-Feb-15 08:30N 50°17' W 001°14'4 6.1
2018-Feb-15 07:52N 50°18' W 001°08'5 6.0
2018-Feb-15 07:00N 50°20' W 001°00'5 7.0
2018-Feb-15 06:14N 50°21' W 000°52'2 8.1
2018-Feb-15 06:00N 50°22' W 000°49'5 8.7
2018-Feb-15 05:29N 50°23' W 000°43'4 9.3
2018-Feb-15 05:00N 50°24' W 000°36'510.0
2018-Feb-15 04:30N 50°25' W 000°28'510.4
2018-Feb-15 04:00N 50°26' W 000°20'510.6
2018-Feb-15 03:30N 50°28' W 000°12'510.8
2018-Feb-15 03:00N 50°29' W 000°04'510.5
2018-Feb-15 02:30N 50°31' E 000°04'510.1
2018-Feb-15 02:00N 50°32' E 000°11'5 9.5
2018-Feb-15 01:30N 50°33' E 000°19'5 9.0
2018-Feb-15 01:00N 50°35' E 000°26'4 8.2
2018-Feb-15 00:30N 50°36' E 000°32'4 7.7
2018-Feb-15 00:00N 50°38' E 000°36'4 7.0
2018-Feb-14 23:30N 50°40' E 000°41'3 7.0
2018-Feb-14 23:00N 50°42' E 000°46'4 8.7
2018-Feb-14 22:30N 50°45' E 000°51'4 8.4
2018-Feb-14 22:00N 50°47' E 000°57'4 8.1
2018-Feb-14 21:29N 50°50' E 001°02'4 8.8
2018-Feb-14 21:00N 50°53' E 001°07'5 9.2
2018-Feb-14 20:30N 50°56' E 001°13'510.2
2018-Feb-14 20:00N 50°59' E 001°19'510.6
2018-Feb-14 19:31N 51°03' E 001°23'510.9
2018-Feb-14 19:00N 51°06' E 001°31'612.7
2018-Feb-14 18:30N 51°10' E 001°39'612.5
2018-Feb-14 18:01N 51°14' E 001°46'611.9
2018-Feb-14 17:30N 51°19' E 001°51'611.5
2018-Feb-14 17:00N 51°24' E 001°57'611.3
2018-Feb-14 16:31N 51°24' E 002°06'714.2
2018-Feb-14 16:00N 51°20' E 002°16'611.9
2018-Feb-14 15:30N 51°22' E 002°25'612.5
2018-Feb-14 14:59N 51°23' E 002°36'612.5
2018-Feb-14 14:29N 51°22' E 002°46'612.3
2018-Feb-14 14:01N 51°23' E 002°55'611.7
2018-Feb-14 13:31N 51°25' E 003°04'612.3
2018-Feb-14 13:01N 51°25' E 003°14'612.4
2018-Feb-14 12:31N 51°25' E 003°24'611.7
2018-Feb-14 12:01N 51°26' E 003°33'4 8.3
2018-Feb-14 11:31N 51°26' E 003°40'5 9.2
2018-Feb-14 11:01N 51°23' E 003°44'510.4
2018-Feb-14 10:31N 51°21' E 003°52'510.7
2018-Feb-14 10:01N 51°25' E 003°58'3 5.8
2018-Feb-14 09:31N 51°24' E 004°02'5 9.3
2018-Feb-14 09:01N 51°23' E 004°10'4 7.6
2018-Feb-14 08:31N 51°21' E 004°15'1 3.0
2018-Feb-14 08:00N 51°21' E 004°17'0 0.0
2018-Feb-14 07:30N 51°21' E 004°17'0 0.0
2018-Feb-14 07:00N 51°21' E 004°17'0 0.0
2018-Feb-14 06:30N 51°21' E 004°17'1 2.4
2018-Feb-14 06:00N 51°20' E 004°18'3 6.4
2018-Feb-14 05:31N 51°17' E 004°21'2 2.9
2018-Feb-14 04:59N 51°17' E 004°23'0 0.0
2018-Feb-14 04:29N 51°17' E 004°23'0 0.0
2018-Feb-14 03:59N 51°17' E 004°23'0 0.0
2018-Feb-14 03:29N 51°17' E 004°23'0 0.0
2018-Feb-14 02:59N 51°17' E 004°23'0 0.0
2018-Feb-14 02:29N 51°17' E 004°23'0 0.0
2018-Feb-14 01:59N 51°17' E 004°23'0 0.0
2018-Feb-14 01:29N 51°17' E 004°23'0 0.0
2018-Feb-14 00:59N 51°17' E 004°23'0 0.0
2018-Feb-14 00:29N 51°17' E 004°23'0 0.0
2018-Feb-13 23:59N 51°17' E 004°23'0 0.0
2018-Feb-13 23:29N 51°17' E 004°23'0 0.0
2018-Feb-13 22:59N 51°17' E 004°23'0 0.0
2018-Feb-13 22:29N 51°17' E 004°23'0 0.0
2018-Feb-13 21:59N 51°17' E 004°23'0 0.0
2018-Feb-13 21:29N 51°17' E 004°23'0 0.0
2018-Feb-13 20:59N 51°17' E 004°23'0 0.0
2018-Feb-13 20:29N 51°17' E 004°23'0 0.0
2018-Feb-13 19:59N 51°17' E 004°23'0 0.0
2018-Feb-13 19:29N 51°17' E 004°23'0 0.0
2018-Feb-13 18:59N 51°17' E 004°23'0 0.0
2018-Feb-13 18:29N 51°17' E 004°23'0 0.0
2018-Feb-13 17:56N 51°17' E 004°23'0 0.0
2018-Feb-13 17:29N 51°17' E 004°23'0 0.0
2018-Feb-13 16:59N 51°17' E 004°23'0 0.0
2018-Feb-13 16:29N 51°17' E 004°23'0 0.0
2018-Feb-13 15:59N 51°17' E 004°23'0 0.0
2018-Feb-13 15:29N 51°17' E 004°23'0 0.0
2018-Feb-13 14:59N 51°17' E 004°23'0 0.0
2018-Feb-13 14:29N 51°17' E 004°23'0 0.0
2018-Feb-13 13:59N 51°17' E 004°23'0 0.0
2018-Feb-13 13:29N 51°17' E 004°23'0 0.0
2018-Feb-13 12:59N 51°17' E 004°23'0 0.0
2018-Feb-13 12:29N 51°17' E 004°23'0 0.0
2018-Feb-13 11:59N 51°17' E 004°23'0 0.0
2018-Feb-13 11:23N 51°17' E 004°23'0 0.0
2018-Feb-13 10:59N 51°17' E 004°23'0 0.0
2018-Feb-13 10:29N 51°17' E 004°23'0 0.0
2018-Feb-13 09:59N 51°17' E 004°23'0 0.0
2018-Feb-13 09:29N 51°17' E 004°23'0 0.0
2018-Feb-13 08:59N 51°17' E 004°23'0 0.0
2018-Feb-13 08:29N 51°17' E 004°23'0 0.0
2018-Feb-13 07:59N 51°17' E 004°23'0 0.0
2018-Feb-13 07:29N 51°17' E 004°23'0 0.0
2018-Feb-13 06:59N 51°17' E 004°23'0 0.0
2018-Feb-13 06:29N 51°17' E 004°23'0 0.0
2018-Feb-13 05:59N 51°17' E 004°23'0 0.0
2018-Feb-13 05:29N 51°17' E 004°23'0 0.0
2018-Feb-13 04:59N 51°17' E 004°23'0 0.0
2018-Feb-13 04:29N 51°17' E 004°23'0 0.0
2018-Feb-13 03:59N 51°17' E 004°23'0 0.0
2018-Feb-13 03:29N 51°17' E 004°23'0 0.0
2018-Feb-13 02:59N 51°17' E 004°23'0 0.0
2018-Feb-13 02:29N 51°17' E 004°23'0 0.0
2018-Feb-13 01:59N 51°17' E 004°23'0 0.0
2018-Feb-13 01:29N 51°17' E 004°23'0 0.0
2018-Feb-13 00:59N 51°17' E 004°23'0 0.0
2018-Feb-13 00:29N 51°17' E 004°23'0 0.0
2018-Feb-12 23:59N 51°17' E 004°23'0 0.0
2018-Feb-12 23:29N 51°17' E 004°23'0 0.0
2018-Feb-12 22:59N 51°17' E 004°23'0 0.0
2018-Feb-12 22:26N 51°17' E 004°23'0 0.0
2018-Feb-12 21:59N 51°17' E 004°23'0 0.0
2018-Feb-12 21:29N 51°17' E 004°23'0 0.0
2018-Feb-12 20:59N 51°17' E 004°23'0 0.0
2018-Feb-12 20:29N 51°17' E 004°23'0 0.0
2018-Feb-12 19:59N 51°17' E 004°23'0 0.0
2018-Feb-12 19:29N 51°17' E 004°23'0 0.0
2018-Feb-12 18:59N 51°17' E 004°23'0 0.0
2018-Feb-12 18:29N 51°17' E 004°23'0 0.0
2018-Feb-12 17:59N 51°17' E 004°23'0 0.0
2018-Feb-12 17:29N 51°17' E 004°23'0 0.0
2018-Feb-12 16:59N 51°17' E 004°23'0 0.0
2018-Feb-12 16:29N 51°17' E 004°23'0 0.0
2018-Feb-12 15:59N 51°17' E 004°23'0 0.0
2018-Feb-12 15:17N 51°17' E 004°23'0 0.0
2018-Feb-12 14:59N 51°17' E 004°23'0 0.0
2018-Feb-12 14:29N 51°17' E 004°23'0 0.0
2018-Feb-12 13:59N 51°17' E 004°23'0 0.0
2018-Feb-12 13:29N 51°17' E 004°23'0 0.0
2018-Feb-12 12:59N 51°17' E 004°23'0 0.0
2018-Feb-12 12:29N 51°17' E 004°23'0 0.0
2018-Feb-12 11:59N 51°17' E 004°23'0 0.0
2018-Feb-12 11:26N 51°17' E 004°23'0 0.0
2018-Feb-12 10:59N 51°17' E 004°23'0 0.0
2018-Feb-12 10:26N 51°17' E 004°23'0 0.0
2018-Feb-12 09:59N 51°17' E 004°23'0 0.0
2018-Feb-12 09:29N 51°17' E 004°23'0 0.0
2018-Feb-12 08:56N 51°17' E 004°23'0 0.0
2018-Feb-12 08:29N 51°17' E 004°23'0 0.0
2018-Feb-12 07:59N 51°17' E 004°23'0 0.0
2018-Feb-12 07:26N 51°17' E 004°23'0 0.0
2018-Feb-12 06:56N 51°17' E 004°23'0 0.0
2018-Feb-12 06:29N 51°17' E 004°23'0 0.0
2018-Feb-12 05:59N 51°17' E 004°23'0 0.0
2018-Feb-12 05:29N 51°17' E 004°23'0 0.0
2018-Feb-12 04:59N 51°17' E 004°23'0 0.0
2018-Feb-12 04:29N 51°17' E 004°23'0 0.0
2018-Feb-12 03:59N 51°17' E 004°23'0 0.0
2018-Feb-12 03:29N 51°17' E 004°23'0 0.0
2018-Feb-12 02:59N 51°17' E 004°23'0 0.0
2018-Feb-12 02:29N 51°17' E 004°23'0 0.0
2018-Feb-12 01:59N 51°17' E 004°23'0 0.0
2018-Feb-12 01:29N 51°17' E 004°23'0 0.0
2018-Feb-12 00:59N 51°17' E 004°23'0 0.0
2018-Feb-12 00:29N 51°17' E 004°23'0 0.0
2018-Feb-11 23:59N 51°17' E 004°23'0 0.0
2018-Feb-11 23:29N 51°17' E 004°23'0 0.0
2018-Feb-11 22:59N 51°17' E 004°23'0 0.0
2018-Feb-11 22:29N 51°17' E 004°23'0 0.0
2018-Feb-11 21:59N 51°17' E 004°23'0 0.0
2018-Feb-11 21:29N 51°17' E 004°23'0 0.0
2018-Feb-11 20:59N 51°17' E 004°23'0 0.0
2018-Feb-11 20:29N 51°17' E 004°23'0 0.0
2018-Feb-11 19:59N 51°17' E 004°23'0 0.0
2018-Feb-11 19:29N 51°17' E 004°23'0 0.0
2018-Feb-11 18:59N 51°17' E 004°23'0 0.0
2018-Feb-11 18:29N 51°17' E 004°23'0 0.0
2018-Feb-11 17:59N 51°17' E 004°23'0 0.0
2018-Feb-11 17:29N 51°17' E 004°23'0 0.0
2018-Feb-11 16:59N 51°17' E 004°23'0 0.0
2018-Feb-11 16:29N 51°17' E 004°23'0 0.0
2018-Feb-11 15:59N 51°17' E 004°23'0 0.0
2018-Feb-11 15:29N 51°17' E 004°23'0 0.0
2018-Feb-11 14:56N 51°17' E 004°23'0 0.0
2018-Feb-11 14:29N 51°17' E 004°23'0 0.0
2018-Feb-11 13:59N 51°17' E 004°23'0 0.0
2018-Feb-11 13:29N 51°17' E 004°23'0 0.0
2018-Feb-11 12:59N 51°17' E 004°23'0 0.0
2018-Feb-11 12:29N 51°17' E 004°23'0 0.0
2018-Feb-11 11:59N 51°17' E 004°23'0 0.0
2018-Feb-11 11:29N 51°17' E 004°23'0 0.0
2018-Feb-11 10:56N 51°17' E 004°23'0 0.0
2018-Feb-11 10:29N 51°17' E 004°23'0 0.0
2018-Feb-11 09:59N 51°17' E 004°23'0 0.0
2018-Feb-11 09:29N 51°17' E 004°23'0 0.0
2018-Feb-11 08:59N 51°17' E 004°23'0 0.0
2018-Feb-11 08:29N 51°17' E 004°23'0 0.0
2018-Feb-11 07:59N 51°17' E 004°23'0 0.0
2018-Feb-11 07:29N 51°17' E 004°23'0 0.0
2018-Feb-11 06:59N 51°17' E 004°23'0 0.0
2018-Feb-11 06:29N 51°17' E 004°23'0 0.0
2018-Feb-11 05:59N 51°17' E 004°23'0 0.0
2018-Feb-11 05:29N 51°17' E 004°23'0 0.0
2018-Feb-11 04:59N 51°17' E 004°23'0 0.0
2018-Feb-11 04:29N 51°17' E 004°23'0 0.0
2018-Feb-11 03:59N 51°17' E 004°23'0 0.0
2018-Feb-11 03:29N 51°17' E 004°23'0 0.0
2018-Feb-11 02:59N 51°17' E 004°23'0 0.0
2018-Feb-11 02:29N 51°17' E 004°23'0 0.0
2018-Feb-11 01:59N 51°17' E 004°23'0 0.0
2018-Feb-11 01:29N 51°17' E 004°23'0 0.0
2018-Feb-11 00:59N 51°17' E 004°23'0 0.0
2018-Feb-11 00:29N 51°17' E 004°23'0 0.0
2018-Feb-10 23:59N 51°17' E 004°23'0 0.0
2018-Feb-10 23:29N 51°17' E 004°23'0 0.0
2018-Feb-10 22:59N 51°17' E 004°23'0 0.0
2018-Feb-10 22:29N 51°17' E 004°23'0 0.0
2018-Feb-10 21:59N 51°17' E 004°23'0 0.0
2018-Feb-10 21:29N 51°17' E 004°23'0 0.0
2018-Feb-10 20:59N 51°17' E 004°23'0 0.0
2018-Feb-10 20:29N 51°17' E 004°23'0 0.0
2018-Feb-10 19:59N 51°17' E 004°23'0 0.0
2018-Feb-10 19:29N 51°17' E 004°23'0 0.0
2018-Feb-10 18:59N 51°17' E 004°23'0 0.0
2018-Feb-10 18:29N 51°17' E 004°23'0 0.0
2018-Feb-10 17:59N 51°17' E 004°23'0 0.0
2018-Feb-10 17:29N 51°17' E 004°23'0 0.0
2018-Feb-10 16:59N 51°17' E 004°23'0 0.0
2018-Feb-10 16:29N 51°17' E 004°23'0 0.0
2018-Feb-10 15:59N 51°17' E 004°23'0 0.0
2018-Feb-10 15:29N 51°17' E 004°23'0 0.0
2018-Feb-10 14:59N 51°17' E 004°23'0 0.0
2018-Feb-10 14:29N 51°17' E 004°23'0 0.0
2018-Feb-10 13:56N 51°17' E 004°23'0 0.0
2018-Feb-10 13:29N 51°17' E 004°23'0 0.0
2018-Feb-10 12:59N 51°17' E 004°23'0 0.0
2018-Feb-10 12:29N 51°17' E 004°23'0 0.0
2018-Feb-10 11:59N 51°17' E 004°23'0 0.0
2018-Feb-10 11:29N 51°17' E 004°23'0 0.0
2018-Feb-10 10:59N 51°17' E 004°23'0 0.0
2018-Feb-10 10:29N 51°17' E 004°23'0 0.0
2018-Feb-10 09:59N 51°17' E 004°23'0 0.0
2018-Feb-10 09:29N 51°17' E 004°23'0 0.0
2018-Feb-10 08:59N 51°17' E 004°23'0 0.0
2018-Feb-10 08:29N 51°17' E 004°23'0 0.0
2018-Feb-10 07:59N 51°17' E 004°23'0 0.0
2018-Feb-10 07:29N 51°17' E 004°23'0 0.0
2018-Feb-10 06:50N 51°17' E 004°23'0 0.0
2018-Feb-10 06:26N 51°17' E 004°23'0 0.0
2018-Feb-10 05:59N 51°17' E 004°23'0 0.0
2018-Feb-10 05:29N 51°17' E 004°23'0 0.0
2018-Feb-10 04:59N 51°17' E 004°23'0 0.0
2018-Feb-10 04:29N 51°17' E 004°23'0 0.0
2018-Feb-10 03:59N 51°17' E 004°23'0 0.0
2018-Feb-10 03:29N 51°17' E 004°23'0 0.0
2018-Feb-10 02:59N 51°17' E 004°23'0 0.0
2018-Feb-10 02:26N 51°17' E 004°23'0 0.0
2018-Feb-10 01:59N 51°17' E 004°23'0 0.0
2018-Feb-10 01:29N 51°17' E 004°23'0 0.0
2018-Feb-10 00:59N 51°17' E 004°23'0 0.0
2018-Feb-10 00:29N 51°17' E 004°23'0 0.0
2018-Feb-09 23:59N 51°17' E 004°23'0 0.0
2018-Feb-09 23:29N 51°17' E 004°23'0 0.0
2018-Feb-09 22:59N 51°17' E 004°23'0 0.0
2018-Feb-09 22:44N 51°17' E 004°23'  

Dump ship's entire track history